createdAt,value
2019-06-08T00:02:24.184Z,13.60
2019-06-08T00:04:50.890Z,13.56
2019-06-08T00:07:20.792Z,13.43
2019-06-08T00:09:47.411Z,13.30
2019-06-08T00:12:14.797Z,13.26
2019-06-08T00:14:41.354Z,13.25
2019-06-08T00:17:07.925Z,13.28
2019-06-08T00:19:34.439Z,13.23
2019-06-08T00:22:01.410Z,13.14
2019-06-08T00:24:28.144Z,13.11
2019-06-08T00:26:54.612Z,13.10
2019-06-08T00:29:22.422Z,13.08
2019-06-08T00:31:51.167Z,13.03
2019-06-08T00:34:18.480Z,12.99
2019-06-08T00:36:45.325Z,12.98
2019-06-08T00:39:12.294Z,12.96
2019-06-08T00:41:38.838Z,12.92
2019-06-08T00:44:05.394Z,12.88
2019-06-08T00:46:32.198Z,12.85
2019-06-08T00:48:58.931Z,12.85
2019-06-08T00:51:26.684Z,12.87
2019-06-08T00:53:53.166Z,12.86
2019-06-08T00:56:19.673Z,12.87
2019-06-08T00:58:46.218Z,12.81
2019-06-08T01:01:20.182Z,12.89
2019-06-08T01:03:45.490Z,12.88
2019-06-08T01:06:11.997Z,12.83
2019-06-08T01:08:38.476Z,12.87
2019-06-08T01:11:05.058Z,12.90
2019-06-08T01:13:31.516Z,12.89
2019-06-08T01:15:58.018Z,12.95
2019-06-08T01:18:25.893Z,13.01
2019-06-08T01:20:52.479Z,12.98
2019-06-08T01:23:19.513Z,12.98
2019-06-08T01:25:46.306Z,12.99
2019-06-08T01:28:13.046Z,12.96
2019-06-08T01:30:45.815Z,12.90
2019-06-08T01:33:12.659Z,12.88
2019-06-08T01:35:39.178Z,12.89
2019-06-08T01:38:05.906Z,12.86
2019-06-08T01:40:32.413Z,12.89
2019-06-08T01:42:59.152Z,12.78
2019-06-08T01:45:32.821Z,12.73
2019-06-08T01:48:00.096Z,12.71
2019-06-08T01:50:27.038Z,12.67
2019-06-08T01:52:54.818Z,12.65
2019-06-08T01:55:21.347Z,12.58
2019-06-08T01:57:48.095Z,12.52
2019-06-08T02:00:35.890Z,12.48
2019-06-08T02:02:45.344Z,12.42
2019-06-08T02:05:12.126Z,12.38
2019-06-08T02:07:38.702Z,12.32
2019-06-08T02:10:05.754Z,12.28
2019-06-08T02:12:33.124Z,12.30
2019-06-08T02:14:59.665Z,12.33
2019-06-08T02:17:27.325Z,12.35
2019-06-08T02:19:53.867Z,12.38
2019-06-08T02:22:20.661Z,12.35
2019-06-08T02:24:47.150Z,12.35
2019-06-08T02:27:13.935Z,12.34
2019-06-08T02:29:40.433Z,12.32
2019-06-08T02:32:07.039Z,12.34
2019-06-08T02:34:35.855Z,12.34
2019-06-08T02:37:01.948Z,12.32
2019-06-08T02:39:28.608Z,12.33
2019-06-08T02:41:55.039Z,12.35
2019-06-08T02:44:22.827Z,12.31
2019-06-08T02:46:49.672Z,12.33
2019-06-08T02:49:16.205Z,12.30
2019-06-08T02:51:43.349Z,12.24
2019-06-08T02:54:10.006Z,12.34
2019-06-08T02:56:39.282Z,12.44
2019-06-08T02:59:07.139Z,12.49
2019-06-08T03:01:36.005Z,12.52
2019-06-08T03:04:05.159Z,12.57
2019-06-08T03:06:34.662Z,12.61
2019-06-08T03:09:04.311Z,12.58
2019-06-08T03:11:32.633Z,12.53
2019-06-08T03:14:01.442Z,12.50
2019-06-08T03:16:28.051Z,12.51
2019-06-08T03:18:54.808Z,12.53
2019-06-08T03:21:21.557Z,12.59
2019-06-08T03:23:48.262Z,12.59
2019-06-08T03:26:15.989Z,12.63
2019-06-08T03:28:44.367Z,12.62
2019-06-08T03:31:10.980Z,12.65
2019-06-08T03:33:45.393Z,12.66
2019-06-08T03:36:06.393Z,12.74
2019-06-08T03:38:33.796Z,12.80
2019-06-08T03:41:00.576Z,12.82
2019-06-08T03:43:27.202Z,12.88
2019-06-08T03:45:54.884Z,12.98
2019-06-08T03:48:21.434Z,13.02
2019-06-08T03:50:47.930Z,13.04
2019-06-08T03:53:14.716Z,13.01
2019-06-08T03:55:42.965Z,13.05
2019-06-08T03:58:10.478Z,13.06
2019-06-08T04:00:38.218Z,13.11
2019-06-08T04:03:04.977Z,13.11
2019-06-08T04:05:31.672Z,13.16
2019-06-08T04:07:58.195Z,13.22
2019-06-08T04:10:24.731Z,13.23
2019-06-08T04:12:51.279Z,13.25
2019-06-08T04:15:18.348Z,13.28
2019-06-08T04:17:46.856Z,13.28
2019-06-08T04:20:13.481Z,13.30
2019-06-08T04:22:44.705Z,13.38
2019-06-08T04:25:12.446Z,13.41
2019-06-08T04:27:40.451Z,13.41
2019-06-08T04:30:07.683Z,13.46
2019-06-08T04:32:34.289Z,13.49
2019-06-08T04:35:01.373Z,13.47
2019-06-08T04:37:28.364Z,13.49
2019-06-08T04:39:54.846Z,13.46
2019-06-08T04:42:21.639Z,13.43
2019-06-08T04:44:49.420Z,13.40
2019-06-08T04:47:16.311Z,13.45
2019-06-08T04:49:46.671Z,13.54
2019-06-08T04:52:13.293Z,13.53
2019-06-08T04:54:40.770Z,13.58
2019-06-08T04:57:07.561Z,13.57
2019-06-08T04:59:34.094Z,13.56
2019-06-08T05:02:03.007Z,13.60
2019-06-08T05:04:51.471Z,13.61
2019-06-08T05:07:18.131Z,13.64
2019-06-08T05:09:45.192Z,13.68
2019-06-08T05:12:14.289Z,13.79
2019-06-08T05:14:41.363Z,13.84
2019-06-08T05:17:08.085Z,13.87
2019-06-08T05:19:35.126Z,13.87
2019-06-08T05:22:02.177Z,13.85
2019-06-08T05:24:28.922Z,13.82
2019-06-08T05:26:55.411Z,13.83
2019-06-08T05:29:21.898Z,13.82
2019-06-08T05:31:49.824Z,13.72
2019-06-08T05:34:16.511Z,13.75
2019-06-08T05:36:43.416Z,13.75
2019-06-08T05:39:09.896Z,13.79
2019-06-08T05:41:36.550Z,13.78
2019-06-08T05:44:06.093Z,13.73
2019-06-08T05:46:34.830Z,13.78
2019-06-08T05:49:01.797Z,13.77
2019-06-08T05:51:28.313Z,14.16
2019-06-08T05:53:54.853Z,14.49
2019-06-08T05:56:21.533Z,14.53
2019-06-08T05:58:50.320Z,14.47
2019-06-08T06:01:17.418Z,14.55
2019-06-08T06:03:46.317Z,15.22
2019-06-08T06:06:13.073Z,15.42
2019-06-08T06:08:40.368Z,15.40
2019-06-08T06:11:06.897Z,15.44
2019-06-08T06:13:33.411Z,15.17
2019-06-08T06:16:00.233Z,14.79
2019-06-08T06:18:26.960Z,14.68
2019-06-08T06:21:07.381Z,14.58
2019-06-08T06:23:22.017Z,14.58
2019-06-08T06:25:49.699Z,14.56
2019-06-08T06:28:16.671Z,14.52
2019-06-08T06:30:44.179Z,14.50
2019-06-08T06:33:10.915Z,14.53
2019-06-08T06:35:37.557Z,14.60
2019-06-08T06:38:04.232Z,14.74
2019-06-08T06:40:30.980Z,14.91
2019-06-08T06:42:57.545Z,15.06
2019-06-08T06:45:24.250Z,15.20
2019-06-08T06:47:52.708Z,15.24
2019-06-08T06:50:19.332Z,15.18
2019-06-08T06:52:46.668Z,15.08
2019-06-08T06:55:13.388Z,15.12
2019-06-08T06:57:40.179Z,15.11
2019-06-08T07:00:08.278Z,15.09
2019-06-08T07:02:35.988Z,15.22
2019-06-08T07:05:03.091Z,15.12
2019-06-08T07:07:29.649Z,15.19
2019-06-08T07:09:56.516Z,15.13
2019-06-08T07:12:23.102Z,15.16
2019-06-08T07:14:51.262Z,15.31
2019-06-08T07:17:17.908Z,15.29
2019-06-08T07:19:44.426Z,15.55
2019-06-08T07:22:11.234Z,15.56
2019-06-08T07:24:37.791Z,15.52
2019-06-08T07:27:07.384Z,15.53
2019-06-08T07:29:33.192Z,15.72
2019-06-08T07:31:59.861Z,16.04
2019-06-08T07:34:26.686Z,16.09
2019-06-08T07:36:53.460Z,16.14
2019-06-08T07:39:20.027Z,16.16
2019-06-08T07:41:47.449Z,15.83
2019-06-08T07:44:14.975Z,15.57
2019-06-08T07:46:43.683Z,15.35
2019-06-08T07:49:10.192Z,15.51
2019-06-08T07:51:36.816Z,15.65
2019-06-08T07:54:03.480Z,15.46
2019-06-08T07:56:34.482Z,15.60
2019-06-08T07:59:05.426Z,15.88
2019-06-08T08:01:36.297Z,16.01
2019-06-08T08:04:01.418Z,15.84
2019-06-08T08:06:31.375Z,15.76
2019-06-08T08:08:58.882Z,15.77
2019-06-08T08:11:25.468Z,15.62
2019-06-08T08:13:54.831Z,15.60
2019-06-08T08:16:21.683Z,15.67
2019-06-08T08:18:49.024Z,16.22
2019-06-08T08:21:23.176Z,16.00
2019-06-08T08:23:44.434Z,16.08
2019-06-08T08:26:11.498Z,16.36
2019-06-08T08:28:38.046Z,16.31
2019-06-08T08:31:04.506Z,16.00
2019-06-08T08:33:31.034Z,15.81
2019-06-08T08:36:00.610Z,16.17
2019-06-08T08:38:27.347Z,16.69
2019-06-08T08:40:56.153Z,16.54
2019-06-08T08:43:23.174Z,17.54
2019-06-08T08:46:04.314Z,18.23
2019-06-08T08:48:39.994Z,18.61
2019-06-08T08:51:08.573Z,19.00
2019-06-08T08:53:37.535Z,19.54
2019-06-08T08:56:04.743Z,19.86
2019-06-08T08:58:31.608Z,19.76
2019-06-08T09:01:01.544Z,20.49
2019-06-08T09:03:33.075Z,20.75
2019-06-08T09:06:01.348Z,20.63
2019-06-08T09:08:27.778Z,20.49
2019-06-08T09:10:55.384Z,20.70
2019-06-08T09:13:22.683Z,20.63
2019-06-08T09:15:49.210Z,20.67
2019-06-08T09:18:15.820Z,20.85
2019-06-08T09:20:47.893Z,20.55
2019-06-08T09:23:22.618Z,20.42
2019-06-08T09:25:49.144Z,20.24
2019-06-08T09:28:18.356Z,21.06
2019-06-08T09:30:44.643Z,20.94
2019-06-08T09:33:11.152Z,20.84
2019-06-08T09:35:37.987Z,20.79
2019-06-08T09:38:05.127Z,20.71
2019-06-08T09:40:32.607Z,20.39
2019-06-08T09:43:10.400Z,20.40
2019-06-08T09:45:38.037Z,20.68
2019-06-08T09:48:05.763Z,20.65
2019-06-08T09:50:34.959Z,21.03
2019-06-08T09:53:15.447Z,20.96
2019-06-08T09:55:38.150Z,21.42
2019-06-08T09:58:26.002Z,21.10
2019-06-08T10:00:54.514Z,21.44
2019-06-08T10:03:23.440Z,21.50
2019-06-08T10:05:49.951Z,21.17
2019-06-08T10:08:20.354Z,21.26
2019-06-08T10:10:48.231Z,21.10
2019-06-08T10:13:14.111Z,21.08
2019-06-08T10:15:41.828Z,21.11
2019-06-08T10:18:08.526Z,20.60
2019-06-08T10:20:35.142Z,19.85
2019-06-08T10:23:27.173Z,19.72
2019-06-08T10:25:40.123Z,20.65
2019-06-08T10:28:11.317Z,21.16
2019-06-08T10:30:35.351Z,21.82
2019-06-08T10:33:04.774Z,21.39
2019-06-08T10:35:30.529Z,21.93
2019-06-08T10:38:01.529Z,22.47
2019-06-08T10:40:25.774Z,21.98
2019-06-08T10:42:52.462Z,22.23
2019-06-08T10:45:19.910Z,22.10
2019-06-08T10:47:47.932Z,22.46
2019-06-08T10:50:15.911Z,22.59
2019-06-08T10:52:43.924Z,23.07
2019-06-08T10:55:12.212Z,23.10
2019-06-08T10:57:40.269Z,22.94
2019-06-08T11:00:23.210Z,23.06
2019-06-08T11:02:42.488Z,23.35
2019-06-08T11:05:12.515Z,23.08
2019-06-08T11:07:40.861Z,22.90
2019-06-08T11:10:10.824Z,23.05
2019-06-08T11:12:37.686Z,23.10
2019-06-08T11:15:05.022Z,23.27
2019-06-08T11:17:32.100Z,23.32
2019-06-08T11:20:00.488Z,24.00
2019-06-08T11:22:29.184Z,24.50
2019-06-08T11:24:58.443Z,23.36
2019-06-08T11:27:24.680Z,23.58
2019-06-08T11:29:51.893Z,23.06
2019-06-08T11:32:18.705Z,23.52
2019-06-08T11:34:45.330Z,24.05
2019-06-08T11:37:23.511Z,24.00
2019-06-08T11:39:50.090Z,24.21
2019-06-08T11:42:18.917Z,24.42
2019-06-08T11:44:45.257Z,23.07
2019-06-08T11:47:13.421Z,23.32
2019-06-08T11:49:40.271Z,22.39
2019-06-08T11:52:13.417Z,22.80
2019-06-08T11:54:44.391Z,22.50
2019-06-08T11:57:12.892Z,22.79
2019-06-08T11:59:41.207Z,23.27
2019-06-08T12:02:10.772Z,22.72
2019-06-08T12:04:38.444Z,23.57
2019-06-08T12:07:05.039Z,23.62
2019-06-08T12:09:32.228Z,23.10
2019-06-08T12:11:58.829Z,23.22
2019-06-08T12:14:33.795Z,23.28
2019-06-08T12:17:01.322Z,23.26
2019-06-08T12:19:37.546Z,23.09
2019-06-08T12:22:03.860Z,22.94
2019-06-08T12:24:41.961Z,23.21
2019-06-08T12:27:10.737Z,22.59
2019-06-08T12:29:31.611Z,23.06
2019-06-08T12:32:00.455Z,22.61
2019-06-08T12:34:38.217Z,23.57
2019-06-08T12:37:14.519Z,23.24
2019-06-08T12:39:39.061Z,23.57
2019-06-08T12:42:09.610Z,22.23
2019-06-08T12:44:34.647Z,22.47
2019-06-08T12:47:01.423Z,22.92
2019-06-08T12:49:29.985Z,22.92
2019-06-08T12:51:58.152Z,23.17
2019-06-08T12:54:24.913Z,23.62
2019-06-08T12:56:52.562Z,23.76
2019-06-08T12:59:22.779Z,23.86
2019-06-08T13:01:49.879Z,23.59
2019-06-08T13:04:21.369Z,23.70
2019-06-08T13:06:48.225Z,23.49
2019-06-08T13:09:14.710Z,23.60
2019-06-08T13:11:43.011Z,24.13
2019-06-08T13:14:20.857Z,24.04
2019-06-08T13:16:55.694Z,23.85
2019-06-08T13:19:22.339Z,23.83
2019-06-08T13:21:48.856Z,23.94
2019-06-08T13:24:20.154Z,23.76
2019-06-08T13:27:04.664Z,23.44
2019-06-08T13:29:31.254Z,22.92
2019-06-08T13:31:58.678Z,22.39
2019-06-08T13:34:35.398Z,21.90
2019-06-08T13:37:02.083Z,21.71
2019-06-08T13:39:28.653Z,21.74
2019-06-08T13:41:55.162Z,21.79
2019-06-08T13:44:21.937Z,21.60
2019-06-08T13:46:48.551Z,21.88
2019-06-08T13:49:18.567Z,22.80
2019-06-08T13:51:43.749Z,23.32
2019-06-08T13:54:10.289Z,23.17
2019-06-08T13:56:38.661Z,22.64
2019-06-08T13:59:07.822Z,21.85
2019-06-08T14:01:34.177Z,22.42
2019-06-08T14:04:04.070Z,22.65
2019-06-08T14:06:33.870Z,23.08
2019-06-08T14:09:01.647Z,23.42
2019-06-08T14:11:28.563Z,23.61
2019-06-08T14:13:55.061Z,23.70
2019-06-08T14:16:23.789Z,23.42
2019-06-08T14:18:53.120Z,22.87
2019-06-08T14:21:25.689Z,22.57
2019-06-08T14:23:48.489Z,22.20
2019-06-08T14:26:20.257Z,21.95
2019-06-08T14:29:10.551Z,22.26
2019-06-08T14:31:39.942Z,22.64
2019-06-08T14:34:10.019Z,22.74
2019-06-08T14:36:34.989Z,22.76
2019-06-08T14:39:02.603Z,22.64
2019-06-08T14:41:31.464Z,22.19
2019-06-08T14:43:58.588Z,22.38
2019-06-08T14:46:30.311Z,22.26
2019-06-08T14:48:58.449Z,22.20
2019-06-08T14:51:29.045Z,21.95
2019-06-08T14:53:58.268Z,21.86
2019-06-08T14:56:25.135Z,21.41
2019-06-08T14:58:51.749Z,21.19
2019-06-08T15:01:20.054Z,21.46
2019-06-08T15:03:48.179Z,21.74
2019-06-08T15:06:19.319Z,21.65
2019-06-08T15:08:50.083Z,21.66
2019-06-08T15:11:14.962Z,21.29
2019-06-08T15:13:41.463Z,21.23
2019-06-08T15:16:08.410Z,21.09
2019-06-08T15:18:38.570Z,21.40
2019-06-08T15:21:20.671Z,21.44
2019-06-08T15:24:20.658Z,21.78
2019-06-08T15:26:27.067Z,21.94
2019-06-08T15:28:48.571Z,21.27
2019-06-08T15:31:17.949Z,21.22
2019-06-08T15:33:45.034Z,21.15
2019-06-08T15:36:14.673Z,20.98
2019-06-08T15:38:41.456Z,20.93
2019-06-08T15:41:07.987Z,20.81
2019-06-08T15:43:37.588Z,20.42
2019-06-08T15:46:03.023Z,20.44
2019-06-08T15:48:32.207Z,20.36
2019-06-08T15:50:58.503Z,20.46
2019-06-08T15:53:29.073Z,20.24
2019-06-08T15:56:38.164Z,20.17
2019-06-08T15:58:58.427Z,20.01
2019-06-08T16:01:25.094Z,20.38
2019-06-08T16:03:54.150Z,20.72
2019-06-08T16:06:20.661Z,20.96
2019-06-08T16:08:48.426Z,21.07
2019-06-08T16:11:14.966Z,21.03
2019-06-08T16:13:41.752Z,20.87
2019-06-08T16:16:08.368Z,20.85
2019-06-08T16:18:35.988Z,20.70
2019-06-08T16:21:03.306Z,20.64
2019-06-08T16:23:30.031Z,20.43
2019-06-08T16:25:56.558Z,20.55
2019-06-08T16:28:29.979Z,20.59
2019-06-08T16:31:28.965Z,20.78
2019-06-08T16:34:00.362Z,20.70
2019-06-08T16:36:27.337Z,20.87
2019-06-08T16:38:54.050Z,21.00
2019-06-08T16:41:20.779Z,20.88
2019-06-08T16:43:47.270Z,20.69
2019-06-08T16:46:13.834Z,20.54
2019-06-08T16:48:40.368Z,20.42
2019-06-08T16:51:07.057Z,20.44
2019-06-08T16:53:34.157Z,20.37
2019-06-08T16:56:00.723Z,20.34
2019-06-08T16:58:27.862Z,20.30
2019-06-08T17:00:56.856Z,20.24
2019-06-08T17:03:26.819Z,20.28
2019-06-08T17:05:53.604Z,20.05
2019-06-08T17:08:20.288Z,20.00
2019-06-08T17:10:55.157Z,20.12
2019-06-08T17:13:21.714Z,20.25
2019-06-08T17:15:48.243Z,20.25
2019-06-08T17:18:14.730Z,20.29
2019-06-08T17:20:41.844Z,20.24
2019-06-08T17:23:08.483Z,19.98
2019-06-08T17:25:34.981Z,19.88
2019-06-08T17:28:07.670Z,19.82
2019-06-08T17:30:35.693Z,19.73
2019-06-08T17:33:16.765Z,19.71
2019-06-08T17:35:43.561Z,19.63
2019-06-08T17:38:20.711Z,19.63
2019-06-08T17:40:47.248Z,19.54
2019-06-08T17:43:14.806Z,19.38
2019-06-08T17:45:42.757Z,19.30
2019-06-08T17:48:09.909Z,19.32
2019-06-08T17:50:36.790Z,19.32
2019-06-08T17:53:03.957Z,19.28
2019-06-08T17:55:30.573Z,19.16
2019-06-08T17:57:57.069Z,19.10
2019-06-08T18:00:24.746Z,19.01
2019-06-08T18:02:51.742Z,18.99
2019-06-08T18:05:28.334Z,18.99
2019-06-08T18:07:57.681Z,18.93
2019-06-08T18:10:27.304Z,18.87
2019-06-08T18:12:53.667Z,18.84
2019-06-08T18:15:20.226Z,18.70
2019-06-08T18:17:51.873Z,18.71
2019-06-08T18:20:18.146Z,18.69
2019-06-08T18:22:49.053Z,18.54
2019-06-08T18:25:17.367Z,18.48
2019-06-08T18:28:04.714Z,18.43
2019-06-08T18:30:13.862Z,18.35
2019-06-08T18:32:40.996Z,18.31
2019-06-08T18:35:08.906Z,18.27
2019-06-08T18:37:51.720Z,18.10
2019-06-08T18:40:31.907Z,18.04
2019-06-08T18:42:59.554Z,17.91
2019-06-08T18:45:31.850Z,17.82
2019-06-08T18:48:12.454Z,17.73
2019-06-08T18:50:40.773Z,17.53
2019-06-08T18:53:08.891Z,17.53
2019-06-08T18:55:43.595Z,17.30
2019-06-08T18:58:21.291Z,17.30
2019-06-08T19:00:41.982Z,17.21
2019-06-08T19:03:07.975Z,17.09
2019-06-08T19:05:34.839Z,16.98
2019-06-08T19:08:03.067Z,16.85
2019-06-08T19:10:37.819Z,16.72
2019-06-08T19:13:09.979Z,16.57
2019-06-08T19:15:41.837Z,16.39
2019-06-08T19:18:08.157Z,16.23
2019-06-08T19:20:34.994Z,16.07
2019-06-08T19:23:01.535Z,15.89
2019-06-08T19:25:28.303Z,15.80
2019-06-08T19:27:54.847Z,15.58
2019-06-08T19:30:24.592Z,15.37
2019-06-08T19:32:52.240Z,15.19
2019-06-08T19:35:27.213Z,14.99
2019-06-08T19:37:54.069Z,14.84
2019-06-08T19:40:20.731Z,14.60
2019-06-08T19:42:56.885Z,14.41
2019-06-08T19:45:18.179Z,14.31
2019-06-08T19:47:45.046Z,14.12
2019-06-08T19:50:13.419Z,14.02
2019-06-08T19:52:42.069Z,13.85
2019-06-08T19:55:09.590Z,13.74
2019-06-08T19:57:36.219Z,13.63
2019-06-08T20:00:03.862Z,13.57
2019-06-08T20:02:32.356Z,13.55
2019-06-08T20:04:58.872Z,13.56
2019-06-08T20:07:28.026Z,13.33
2019-06-08T20:09:57.008Z,13.29
2019-06-08T20:12:23.019Z,13.29
2019-06-08T20:14:51.044Z,13.20
2019-06-08T20:17:19.368Z,13.19
2019-06-08T20:19:48.028Z,13.13
2019-06-08T20:22:18.262Z,13.05
2019-06-08T20:24:46.375Z,12.89
2019-06-08T20:27:13.546Z,12.83
2019-06-08T20:29:41.267Z,12.79
2019-06-08T20:32:08.431Z,12.68
2019-06-08T20:34:35.054Z,12.65
2019-06-08T20:37:02.163Z,12.60
2019-06-08T20:39:29.703Z,12.57
2019-06-08T20:41:58.593Z,12.65
2019-06-08T20:44:24.934Z,12.58
2019-06-08T20:46:52.801Z,12.60
2019-06-08T20:49:20.670Z,12.57
2019-06-08T20:51:49.430Z,12.59
2019-06-08T20:54:18.710Z,12.57
2019-06-08T20:56:50.901Z,12.55
2019-06-08T20:59:29.552Z,12.49
2019-06-08T21:01:52.152Z,12.53
2019-06-08T21:04:18.204Z,12.52
2019-06-08T21:07:12.381Z,12.53
2019-06-08T21:09:38.936Z,12.52
2019-06-08T21:12:05.433Z,12.49
2019-06-08T21:14:31.914Z,12.42
2019-06-08T21:16:58.791Z,12.39
2019-06-08T21:19:27.934Z,12.38
2019-06-08T21:21:58.944Z,12.37
2019-06-08T21:24:27.942Z,12.40
2019-06-08T21:26:55.847Z,12.35
2019-06-08T21:29:22.566Z,12.27
2019-06-08T21:31:52.271Z,12.25
2019-06-08T21:34:18.340Z,12.18
2019-06-08T21:36:45.057Z,12.13
2019-06-08T21:39:12.210Z,12.10
2019-06-08T21:41:39.072Z,12.09
2019-06-08T21:44:07.772Z,12.13
2019-06-08T21:46:35.074Z,12.18
2019-06-08T21:49:27.691Z,12.21
2019-06-08T21:51:54.584Z,12.21
2019-06-08T21:54:21.136Z,12.22
2019-06-08T21:56:49.965Z,12.20
2019-06-08T21:59:18.138Z,12.16
2019-06-08T22:01:50.417Z,12.03
2019-06-08T22:04:18.496Z,11.97
2019-06-08T22:06:54.607Z,11.95
2019-06-08T22:09:21.202Z,11.92
2019-06-08T22:11:47.669Z,11.94
2019-06-08T22:14:14.310Z,11.92
2019-06-08T22:16:41.900Z,11.92
2019-06-08T22:19:08.360Z,11.88
2019-06-08T22:21:37.552Z,11.88
2019-06-08T22:24:03.683Z,11.83
2019-06-08T22:26:30.338Z,11.79
2019-06-08T22:28:58.401Z,11.73
2019-06-08T22:31:27.606Z,11.72
2019-06-08T22:33:54.331Z,11.73
2019-06-08T22:36:27.473Z,11.80
2019-06-08T22:38:54.454Z,11.86
2019-06-08T22:41:21.051Z,11.78
2019-06-08T22:43:49.577Z,11.80
2019-06-08T22:46:17.816Z,11.79
2019-06-08T22:48:44.723Z,11.75
2019-06-08T22:51:11.267Z,11.78
2019-06-08T22:53:38.386Z,11.79
2019-06-08T22:56:07.659Z,11.75
2019-06-08T22:58:33.677Z,11.72
2019-06-08T23:01:06.496Z,11.71
2019-06-08T23:03:30.897Z,11.69
2019-06-08T23:05:59.734Z,11.66
2019-06-08T23:08:26.027Z,11.63
2019-06-08T23:10:52.589Z,11.62
2019-06-08T23:13:19.090Z,11.60
2019-06-08T23:15:47.626Z,11.51
2019-06-08T23:18:14.216Z,11.49
2019-06-08T23:20:40.710Z,11.49
2019-06-08T23:23:08.954Z,11.44
2019-06-08T23:25:37.293Z,11.42
2019-06-08T23:28:09.562Z,11.39
2019-06-08T23:30:43.865Z,11.46
2019-06-08T23:33:11.640Z,11.45
2019-06-08T23:36:07.667Z,11.46
2019-06-08T23:38:08.117Z,11.44
2019-06-08T23:40:35.174Z,11.44
2019-06-08T23:43:03.010Z,11.37
2019-06-08T23:45:30.075Z,11.34
2019-06-08T23:47:58.404Z,11.36
2019-06-08T23:50:27.245Z,11.34
2019-06-08T23:52:53.567Z,11.35
2019-06-08T23:55:20.264Z,11.36
2019-06-08T23:57:46.771Z,11.34
